Time;durP1;ratioP1;P1;durP2;ratioP2;P2;SDS_P1;SDS_P2;PMS_P1;PMS_P2;Temp;Humidity;BMP_temperature;BMP_pressure;BME280_temperature;BME280_humidity;BME280_pressure;Samples;Min_cycle;Max_cycle;Signal;HPM_P1;HPM_P2
2021/11/07 00:00:27;;;;;;;;;;;;;;;20.27;65.67;101980.00;4993799;28;1006;-44
2021/11/07 00:03:01;;;;;;;;;;;;;;;20.25;66.58;101969.38;4990813;28;1755;-43
2021/11/07 00:05:30;;;;;;;;;;;;;;;20.27;64.89;101962.06;4990984;28;1618;-44
2021/11/07 00:08:07;;;;;;;;;;;;;;;20.23;65.15;101971.31;4991324;28;1967;-44
2021/11/07 00:10:40;;;;;;;;;;;;;;;20.24;65.21;101970.34;4989913;28;1479;-43
2021/11/07 00:13:15;;;;;;;;;;;;;;;20.22;65.63;101961.53;4991879;28;1416;-44
2021/11/07 00:15:42;;;;;;;;;;;;;;;20.21;65.47;101956.28;4990143;28;1522;-43
2021/11/07 00:18:11;;;;;;;;;;;;;;;20.22;65.81;101969.59;4990563;28;1587;-43
2021/11/07 00:20:44;;;;;;;;;;;;;;;20.21;65.36;101945.53;4991693;28;1309;-43
2021/11/07 00:23:57;;;;;;;;;;;;;;;20.21;65.82;101967.91;4993464;28;1494;-43
2021/11/07 00:26:48;;;;;;;;;;;;;;;20.18;65.62;101951.16;4988692;28;1906;-43
2021/11/07 00:32:03;;;;;;;;;;;;;;;20.20;65.88;101952.75;4994554;28;2578;-43
2021/11/07 00:37:42;;;;;;;;;;;;;;;20.24;65.83;101951.53;4971085;28;1924;-43
2021/11/07 00:40:19;;;;;;;;;;;;;;;20.22;65.03;101952.63;4991663;28;1921;-44
2021/11/07 00:42:53;;;;;;;;;;;;;;;20.18;66.18;101957.38;4992458;28;1755;-44
2021/11/07 00:45:28;;;;;;;;;;;;;;;20.15;65.14;101944.16;4991768;28;1553;-43
2021/11/07 00:48:06;;;;;;;;;;;;;;;20.24;65.32;101948.84;4989219;28;1906;-43
2021/11/07 00:50:43;;;;;;;;;;;;;;;20.22;65.95;101947.25;4992376;28;1696;-44
2021/11/07 00:53:36;;;;;;;;;;;;;;;20.21;65.49;101946.41;4991896;28;1702;-43
2021/11/07 00:56:12;;;;;;;;;;;;;;;20.19;64.91;101943.00;4992188;28;1619;-44
2021/11/07 00:58:43;;;;;;;;;;;;;;;20.20;65.02;101950.06;4992250;28;1886;-43
2021/11/07 01:01:12;;;;;;;;;;;;;;;20.15;65.57;101949.53;4992198;28;1937;-44
2021/11/07 01:03:38;;;;;;;;;;;;;;;20.16;64.60;101953.09;4991753;28;1867;-44
2021/11/07 01:06:05;;;;;;;;;;;;;;;20.15;64.93;101957.59;4991966;28;1788;-44
2021/11/07 01:08:31;;;;;;;;;;;;;;;20.20;64.77;101944.69;4992442;28;1981;-44
2021/11/07 01:11:00;;;;;;;;;;;;;;;20.20;64.95;101954.59;4991717;28;1964;-43
2021/11/07 01:13:27;;;;;;;;;;;;;;;20.20;64.95;101947.38;4992238;28;1657;-44
2021/11/07 01:15:55;;;;;;;;;;;;;;;20.24;64.47;101932.75;4991523;28;1668;-45
2021/11/07 01:18:23;;;;;;;;;;;;;;;20.21;65.14;101945.53;4991707;28;1822;-44
2021/11/07 01:20:49;;;;;;;;;;;;;;;20.27;64.90;101945.06;4992165;28;1485;-44
2021/11/07 01:23:17;;;;;;;;;;;;;;;20.11;65.30;101934.63;4991026;28;1664;-43
2021/11/07 01:25:46;;;;;;;;;;;;;;;20.11;65.13;101934.63;4990967;28;1938;-44
2021/11/07 01:28:13;;;;;;;;;;;;;;;20.12;64.59;101940.88;4993177;28;1943;-43
2021/11/07 01:30:47;;;;;;;;;;;;;;;20.16;64.65;101940.50;4991383;28;1692;-43
2021/11/07 01:33:19;;;;;;;;;;;;;;;20.15;65.08;101941.47;4991227;28;1569;-43
2021/11/07 01:35:50;;;;;;;;;;;;;;;20.05;65.47;101935.06;4992179;28;1426;-44
2021/11/07 01:38:23;;;;;;;;;;;;;;;20.11;65.34;101937.31;4990894;28;1914;-44
2021/11/07 01:40:58;;;;;;;;;;;;;;;20.11;64.82;101925.72;4991553;28;2207;-44
2021/11/07 01:43:25;;;;;;;;;;;;;;;20.09;64.63;101917.75;4992980;28;1709;-44
2021/11/07 01:45:57;;;;;;;;;;;;;;;20.14;64.42;101925.50;4990913;28;1593;-43
2021/11/07 01:48:27;;;;;;;;;;;;;;;20.13;65.25;101938.03;4987074;28;1967;-43
2021/11/07 01:50:56;;;;;;;;;;;;;;;20.18;64.20;101935.88;4991527;28;1068;-43
2021/11/07 01:53:26;;;;;;;;;;;;;;;20.18;64.22;101940.41;4990930;28;1662;-44
2021/11/07 01:55:53;;;;;;;;;;;;;;;20.17;63.58;101934.16;4990656;28;1614;-43
2021/11/07 01:58:20;;;;;;;;;;;;;;;20.12;64.69;101930.97;4991100;28;1728;-43
2021/11/07 02:00:47;;;;;;;;;;;;;;;20.09;63.93;101930.34;4990606;28;1693;-43
2021/11/07 02:03:14;;;;;;;;;;;;;;;20.38;62.93;101917.41;4990913;28;1967;-43
2021/11/07 02:05:42;;;;;;;;;;;;;;;20.86;62.54;101920.84;4990797;28;1668;-43
2021/11/07 02:08:09;;;;;;;;;;;;;;;20.59;62.75;101914.94;4990255;28;1914;-43
2021/11/07 02:10:36;;;;;;;;;;;;;;;20.40;63.56;101929.75;4990539;28;1613;-44
2021/11/07 02:13:03;;;;;;;;;;;;;;;20.96;61.32;101923.69;4993299;28;1745;-43
2021/11/07 02:15:30;;;;;;;;;;;;;;;20.91;61.59;101936.66;4990635;28;1949;-43
2021/11/07 02:17:57;;;;;;;;;;;;;;;20.62;63.17;101920.94;4990517;28;1920;-43
2021/11/07 02:20:25;;;;;;;;;;;;;;;20.36;63.98;101906.78;4991223;28;1518;-44
2021/11/07 02:22:52;;;;;;;;;;;;;;;20.63;62.47;101909.22;4990218;28;1762;-44
2021/11/07 02:25:18;;;;;;;;;;;;;;;21.11;61.19;101920.75;4990214;28;1881;-44
2021/11/07 02:27:46;;;;;;;;;;;;;;;20.78;62.35;101927.81;4989979;28;1907;-44
2021/11/07 02:30:15;;;;;;;;;;;;;;;20.59;63.68;101910.44;4992201;28;1566;-44
2021/11/07 02:32:42;;;;;;;;;;;;;;;20.36;64.17;101897.88;4990249;28;1579;-43
2021/11/07 02:35:08;;;;;;;;;;;;;;;20.60;63.21;101903.22;4999041;28;1758;-44
2021/11/07 02:37:36;;;;;;;;;;;;;;;21.15;61.53;101889.94;4993941;28;1659;-43
2021/11/07 02:40:06;;;;;;;;;;;;;;;20.81;62.03;101873.81;4995676;28;1480;-44
2021/11/07 02:42:32;;;;;;;;;;;;;;;20.39;65.01;101885.06;4990200;28;1732;-44
2021/11/07 02:44:59;;;;;;;;;;;;;;;20.32;63.46;101886.50;4990107;28;1541;-43
2021/11/07 02:47:25;;;;;;;;;;;;;;;20.98;62.21;101892.16;4991930;28;1977;-43
2021/11/07 02:49:52;;;;;;;;;;;;;;;20.94;61.93;101885.31;4992242;28;1958;-43
2021/11/07 02:52:18;;;;;;;;;;;;;;;20.57;63.43;101861.28;4993367;28;1751;-43
2021/11/07 02:54:47;;;;;;;;;;;;;;;20.44;62.99;101864.06;4990192;28;1556;-44
2021/11/07 02:57:14;;;;;;;;;;;;;;;20.51;62.83;101871.63;4982218;28;1527;-44
2021/11/07 02:59:41;;;;;;;;;;;;;;;21.25;60.83;101853.28;4997139;28;1401;-43
2021/11/07 03:02:10;;;;;;;;;;;;;;;20.86;62.75;101871.63;5101512;23;3560;-43
2021/11/07 03:04:39;;;;;;;;;;;;;;;20.53;63.24;101858.94;5000343;28;1552;-43
2021/11/07 03:07:14;;;;;;;;;;;;;;;20.41;64.01;101858.06;4998996;28;1914;-43
2021/11/07 03:09:44;;;;;;;;;;;;;;;20.96;62.12;101879.81;5014025;28;1748;-43
2021/11/07 03:12:24;;;;;;;;;;;;;;;21.04;61.69;101862.09;5001128;28;1177;-43
2021/11/07 03:14:57;;;;;;;;;;;;;;;20.59;62.79;101853.13;5010203;28;1810;-43
2021/11/07 03:17:25;;;;;;;;;;;;;;;20.43;63.78;101878.47;5007273;28;1636;-43
2021/11/07 03:19:54;;;;;;;;;;;;;;;20.64;62.29;101862.53;5010164;28;1452;-43
2021/11/07 03:22:30;;;;;;;;;;;;;;;21.34;60.84;101855.22;5006662;28;1435;-43
2021/11/07 03:27:56;;;;;;;;;;;;;;;20.57;63.15;101818.28;5004294;28;1914;-43
2021/11/07 03:30:40;;;;;;;;;;;;;;;20.66;62.35;101846.31;5004655;28;1711;-43
2021/11/07 03:33:18;;;;;;;;;;;;;;;21.06;61.92;101813.56;4996068;28;2692;-43
2021/11/07 03:35:47;;;;;;;;;;;;;;;20.86;62.22;101807.09;5005763;28;1292;-43
2021/11/07 03:38:13;;;;;;;;;;;;;;;20.54;64.05;101813.16;5005115;28;1807;-43
2021/11/07 03:40:40;;;;;;;;;;;;;;;20.29;65.30;101803.44;5008324;28;1637;-43
2021/11/07 03:43:15;;;;;;;;;;;;;;;20.32;65.01;101791.63;4996148;28;1672;-43
2021/11/07 03:45:44;;;;;;;;;;;;;;;21.02;61.91;101775.28;4997091;28;1570;-43
2021/11/07 03:48:16;;;;;;;;;;;;;;;20.92;61.88;101747.44;5008498;28;1934;-43
2021/11/07 03:51:05;;;;;;;;;;;;;;;20.62;62.94;101780.34;5004729;28;998;-43
2021/11/07 03:53:32;;;;;;;;;;;;;;;20.33;63.65;101753.88;5000486;28;1583;-43
2021/11/07 03:56:00;;;;;;;;;;;;;;;20.48;62.85;101785.91;5010154;28;2105;-43
2021/11/07 03:58:29;;;;;;;;;;;;;;;21.19;60.80;101765.03;4998371;28;2081;-43
2021/11/07 04:00:57;;;;;;;;;;;;;;;20.66;63.55;101782.66;5009715;28;1977;-43
2021/11/07 04:03:30;;;;;;;;;;;;;;;20.35;64.80;101797.63;5005010;28;1445;-44
2021/11/07 04:05:57;;;;;;;;;;;;;;;20.14;64.91;101789.38;5009894;28;1336;-44
2021/11/07 04:08:35;;;;;;;;;;;;;;;20.19;64.44;101787.22;5007058;28;1968;-43
2021/11/07 04:11:04;;;;;;;;;;;;;;;20.66;63.28;101796.09;5009854;28;1918;-43
2021/11/07 04:13:36;;;;;;;;;;;;;;;20.35;65.06;101791.38;4997705;28;1011;-44
2021/11/07 04:16:07;;;;;;;;;;;;;;;20.02;65.33;101780.44;5000507;28;1985;-44
2021/11/07 04:18:34;;;;;;;;;;;;;;;20.07;65.24;101804.25;5000229;28;1790;-43
2021/11/07 04:21:00;;;;;;;;;;;;;;;20.62;63.76;101807.22;5000157;28;1668;-43
2021/11/07 04:23:28;;;;;;;;;;;;;;;20.32;65.51;101797.00;5001702;28;1237;-43
2021/11/07 04:25:55;;;;;;;;;;;;;;;20.11;65.13;101803.03;5003738;28;1874;-43
2021/11/07 04:28:24;;;;;;;;;;;;;;;20.13;65.95;101813.66;4998612;28;1906;-44
2021/11/07 04:30:53;;;;;;;;;;;;;;;20.64;64.72;101802.56;5002162;28;1945;-43
2021/11/07 04:33:31;;;;;;;;;;;;;;;20.36;65.53;101817.28;5009233;28;1744;-43
2021/11/07 04:36:00;;;;;;;;;;;;;;;20.08;65.93;101822.09;5007658;28;1479;-43
2021/11/07 04:38:29;;;;;;;;;;;;;;;20.06;66.86;101813.28;5009539;28;1687;-44
2021/11/07 04:40:56;;;;;;;;;;;;;;;20.58;65.41;101830.75;5005728;28;1750;-43
2021/11/07 04:43:25;;;;;;;;;;;;;;;20.23;65.79;101831.66;5001023;28;1749;-43
2021/11/07 04:45:55;;;;;;;;;;;;;;;20.05;66.27;101828.56;5004406;28;1503;-43
2021/11/07 04:48:25;;;;;;;;;;;;;;;20.12;66.31;101825.41;5003038;28;1906;-43
2021/11/07 04:50:54;;;;;;;;;;;;;;;20.56;65.56;101821.94;5007298;28;1666;-44
2021/11/07 04:53:30;;;;;;;;;;;;;;;20.26;65.86;101784.91;5007766;28;1914;-43
2021/11/07 04:55:57;;;;;;;;;;;;;;;20.03;67.49;101770.53;5001416;28;1829;-43
2021/11/07 04:58:23;;;;;;;;;;;;;;;20.25;65.98;101788.53;4997771;28;1902;-43
2021/11/07 05:00:56;;;;;;;;;;;;;;;20.46;65.44;101799.47;5005577;28;1572;-43
2021/11/07 05:03:22;;;;;;;;;;;;;;;20.24;66.26;101787.69;5011028;28;1560;-44
2021/11/07 05:05:49;;;;;;;;;;;;;;;19.99;67.88;101798.59;5002792;28;1661;-43
2021/11/07 05:08:17;;;;;;;;;;;;;;;19.87;68.27;101770.88;4994275;28;1906;-43
2021/11/07 05:10:43;;;;;;;;;;;;;;;20.18;66.23;101780.13;5005631;28;1632;-43
2021/11/07 05:13:12;;;;;;;;;;;;;;;20.48;65.70;101786.75;5007841;28;1533;-43
2021/11/07 05:15:38;;;;;;;;;;;;;;;20.23;66.47;101769.88;5004157;28;1562;-43
2021/11/07 05:18:05;;;;;;;;;;;;;;;20.00;67.62;101797.66;5003009;28;1558;-43
2021/11/07 05:20:31;;;;;;;;;;;;;;;20.33;65.57;101794.16;5003241;28;1728;-43
2021/11/07 05:23:01;;;;;;;;;;;;;;;20.54;66.29;101823.91;5007749;28;2013;-44
2021/11/07 05:25:29;;;;;;;;;;;;;;;20.39;66.86;101795.53;5000408;28;1583;-44
2021/11/07 05:27:58;;;;;;;;;;;;;;;20.17;67.00;101821.38;5001843;28;2016;-43
2021/11/07 05:30:26;;;;;;;;;;;;;;;20.01;67.28;101823.50;4997861;28;1393;-43
2021/11/07 05:32:53;;;;;;;;;;;;;;;20.39;66.22;101812.53;5005416;28;1962;-43
2021/11/07 05:35:20;;;;;;;;;;;;;;;20.54;66.58;101818.53;5010487;28;1603;-43
2021/11/07 05:37:48;;;;;;;;;;;;;;;20.47;66.15;101790.41;4997232;28;1544;-43
2021/11/07 05:40:17;;;;;;;;;;;;;;;20.22;67.51;101810.28;4996510;28;1698;-43
2021/11/07 05:42:45;;;;;;;;;;;;;;;20.31;67.75;101776.47;5005521;28;1980;-43
2021/11/07 05:45:14;;;;;;;;;;;;;;;20.69;66.40;101812.94;5009908;28;1536;-43
2021/11/07 05:47:49;;;;;;;;;;;;;;;20.66;66.25;101800.63;4978987;28;10924;-43
2021/11/07 05:50:15;;;;;;;;;;;;;;;20.36;66.33;101809.22;4977537;28;11021;-43
2021/11/07 05:52:43;;;;;;;;;;;;;;;20.23;66.66;101815.53;5006604;28;1444;-43
2021/11/07 05:55:12;;;;;;;;;;;;;;;20.64;66.47;101811.47;5006765;28;1436;-43
2021/11/07 05:57:40;;;;;;;;;;;;;;;20.62;66.70;101805.38;5005707;28;1676;-43
2021/11/07 06:00:13;;;;;;;;;;;;;;;20.45;67.04;101808.47;5010439;28;1567;-45
2021/11/07 06:02:40;;;;;;;;;;;;;;;20.20;66.61;101786.22;4996109;28;1751;-43
2021/11/07 06:05:07;;;;;;;;;;;;;;;20.10;66.05;101787.91;5000250;28;1582;-44
2021/11/07 06:07:33;;;;;;;;;;;;;;;20.15;66.57;101780.34;5002642;28;1629;-44
2021/11/07 06:10:00;;;;;;;;;;;;;;;20.11;67.09;101776.19;5003095;28;1934;-44
2021/11/07 06:12:31;;;;;;;;;;;;;;;20.37;66.53;101770.63;5002366;28;1759;-44
2021/11/07 06:15:07;;;;;;;;;;;;;;;20.47;67.49;101795.78;5003900;28;1722;-43
2021/11/07 06:17:37;;;;;;;;;;;;;;;20.42;66.16;101796.16;4995291;28;1571;-44
2021/11/07 06:20:13;;;;;;;;;;;;;;;20.26;66.95;101804.56;5002678;28;1520;-43
2021/11/07 06:22:42;;;;;;;;;;;;;;;20.34;66.48;101790.53;4999262;28;1438;-44
2021/11/07 06:25:08;;;;;;;;;;;;;;;20.69;66.29;101835.31;5001699;28;1481;-43
2021/11/07 06:27:36;;;;;;;;;;;;;;;20.63;66.00;101831.28;5002714;28;1579;-43
2021/11/07 06:30:08;;;;;;;;;;;;;;;20.45;66.71;101817.41;4995762;28;1902;-44
2021/11/07 06:32:36;;;;;;;;;;;;;;;20.31;68.30;101819.44;5004175;28;1765;-44
2021/11/07 06:35:08;;;;;;;;;;;;;;;20.54;66.96;101813.16;5007177;28;1516;-43
2021/11/07 06:37:37;;;;;;;;;;;;;;;20.53;66.84;101811.47;5008799;28;1582;-43
2021/11/07 06:40:13;;;;;;;;;;;;;;;20.66;66.52;101806.84;4996053;28;2710;-44
2021/11/07 06:42:40;;;;;;;;;;;;;;;20.55;67.11;101798.75;5003380;28;1606;-44
2021/11/07 06:45:08;;;;;;;;;;;;;;;20.41;67.06;101785.53;4998408;28;1535;-43
2021/11/07 06:47:36;;;;;;;;;;;;;;;20.53;67.50;101794.44;4996653;28;1374;-44
2021/11/07 06:50:05;;;;;;;;;;;;;;;20.78;66.94;101763.84;4996350;28;1914;-44
2021/11/07 06:52:32;;;;;;;;;;;;;;;20.88;66.35;101783.63;5003849;28;1455;-44
2021/11/07 06:55:01;;;;;;;;;;;;;;;20.68;66.34;101800.50;4999774;28;1732;-44
2021/11/07 06:57:28;;;;;;;;;;;;;;;20.55;67.05;101822.06;4998862;28;1306;-44
2021/11/07 06:59:57;;;;;;;;;;;;;;;20.54;66.90;101820.38;5000404;28;1445;-44
2021/11/07 07:02:26;;;;;;;;;;;;;;;20.45;66.91;101814.75;4994222;28;1833;-43
2021/11/07 07:04:56;;;;;;;;;;;;;;;20.65;67.55;101815.88;4997646;28;1388;-45
2021/11/07 07:07:28;;;;;;;;;;;;;;;20.58;67.27;101803.88;5000550;28;1730;-44
2021/11/07 07:10:00;;;;;;;;;;;;;;;20.41;66.32;101789.09;4996503;28;1910;-44
2021/11/07 07:12:42;;;;;;;;;;;;;;;20.23;66.68;101788.69;5000812;28;1412;-44
2021/11/07 07:15:11;;;;;;;;;;;;;;;20.14;66.92;101778.66;5001467;28;1463;-44
2021/11/07 07:17:53;;;;;;;;;;;;;;;20.52;66.61;101768.56;4996649;28;1327;-44
2021/11/07 07:20:41;;;;;;;;;;;;;;;20.57;65.99;101767.25;4995998;28;1401;-44
2021/11/07 07:28:53;;;;;;;;;;;;;;;20.12;67.08;101750.22;4983533;28;1886;-44
2021/11/07 07:31:44;;;;;;;;;;;;;;;20.35;66.18;101732.28;5007918;28;1962;-44
2021/11/07 07:34:24;;;;;;;;;;;;;;;20.41;67.14;101747.91;5003801;28;1605;-44
2021/11/07 07:36:56;;;;;;;;;;;;;;;20.22;67.18;101757.41;4999586;28;1364;-43
2021/11/07 07:39:26;;;;;;;;;;;;;;;20.13;67.39;101719.69;5005865;28;1590;-44
2021/11/07 07:41:53;;;;;;;;;;;;;;;20.16;66.97;101741.78;5005991;28;1840;-43
2021/11/07 07:44:22;;;;;;;;;;;;;;;20.08;65.46;101725.41;5006347;28;1660;-44
2021/11/07 07:46:49;;;;;;;;;;;;;;;20.39;65.52;101737.31;5001060;28;1698;-44
2021/11/07 07:49:17;;;;;;;;;;;;;;;20.50;65.55;101701.50;5003695;28;2023;-44
2021/11/07 07:51:46;;;;;;;;;;;;;;;20.43;65.96;101702.97;5004434;28;1390;-44
2021/11/07 07:54:16;;;;;;;;;;;;;;;20.34;65.89;101693.81;5004569;28;1553;-44
2021/11/07 07:56:45;;;;;;;;;;;;;;;20.46;65.75;101705.44;5002869;28;1685;-43
2021/11/07 07:59:11;;;;;;;;;;;;;;;20.46;65.80;101702.75;5011658;28;1297;-43
2021/11/07 08:01:40;;;;;;;;;;;;;;;20.36;61.43;101704.44;4999944;28;1752;-43
2021/11/07 08:04:09;;;;;;;;;;;;;;;20.30;63.11;101729.13;5008503;28;1884;-44
2021/11/07 08:06:36;;;;;;;;;;;;;;;20.24;63.71;101731.28;5010126;28;1458;-43
2021/11/07 08:09:05;;;;;;;;;;;;;;;20.24;64.64;101742.03;5009461;28;1993;-44
2021/11/07 08:11:42;;;;;;;;;;;;;;;20.42;64.14;101744.25;5005276;28;1545;-43
2021/11/07 08:14:11;;;;;;;;;;;;;;;20.52;63.37;101723.75;5004443;28;1629;-44
2021/11/07 08:16:39;;;;;;;;;;;;;;;20.46;63.50;101708.97;5008566;28;1747;-44
2021/11/07 08:19:14;;;;;;;;;;;;;;;20.35;64.54;101700.03;5005690;28;1484;-44
2021/11/07 08:21:41;;;;;;;;;;;;;;;20.35;64.84;101706.28;5005738;28;1958;-44
2021/11/07 08:24:11;;;;;;;;;;;;;;;20.58;63.79;101712.50;5007419;28;1627;-44
2021/11/07 08:26:44;;;;;;;;;;;;;;;20.42;65.14;101699.44;5004823;28;1498;-44
2021/11/07 08:29:15;;;;;;;;;;;;;;;20.33;65.40;101691.25;5010943;28;1999;-44
2021/11/07 08:31:43;;;;;;;;;;;;;;;20.46;65.06;101703.59;5010431;28;1466;-44
2021/11/07 08:34:12;;;;;;;;;;;;;;;20.32;65.77;101694.94;5013219;28;1677;-44
2021/11/07 08:36:50;;;;;;;;;;;;;;;20.45;64.57;101687.59;5009345;28;1636;-43
2021/11/07 08:39:23;;;;;;;;;;;;;;;20.71;65.01;101690.03;5010343;28;1277;-44
2021/11/07 08:41:57;;;;;;;;;;;;;;;20.52;65.92;101688.81;5005047;28;1715;-44
2021/11/07 09:00:56;;;;;;;;;;;;;;;20.37;66.72;101687.34;4995958;28;1466;-44
2021/11/07 09:03:42;;;;;;;;;;;;;;;20.68;65.54;101679.56;5004854;28;1621;-44
2021/11/07 09:08:52;;;;;;;;;;;;;;;20.45;66.03;101669.66;5008810;28;1977;-43
2021/11/07 09:11:20;;;;;;;;;;;;;;;20.43;65.91;101654.59;5009367;28;1864;-44
2021/11/07 09:13:56;;;;;;;;;;;;;;;20.49;66.40;101664.84;5009882;28;1714;-45
2021/11/07 09:16:25;;;;;;;;;;;;;;;20.58;65.93;101652.53;5007175;28;1552;-43
2021/11/07 09:18:57;;;;;;;;;;;;;;;20.68;65.74;101664.28;5003981;28;1215;-43
2021/11/07 09:21:30;;;;;;;;;;;;;;;20.61;65.74;101653.19;5006863;28;1533;-44
2021/11/07 09:24:04;;;;;;;;;;;;;;;20.43;66.73;101649.25;5008576;28;1611;-43
2021/11/07 09:26:34;;;;;;;;;;;;;;;20.46;66.95;101652.53;5004849;28;1715;-44
2021/11/07 09:29:10;;;;;;;;;;;;;;;20.40;67.05;101644.97;5007487;28;1969;-44
2021/11/07 09:31:46;;;;;;;;;;;;;;;20.63;66.71;101648.53;4999293;28;1531;-43
2021/11/07 09:34:25;;;;;;;;;;;;;;;20.76;66.17;101637.63;5010410;28;1383;-43
2021/11/07 09:36:58;;;;;;;;;;;;;;;20.53;67.58;101652.91;5005594;28;1623;-43
2021/11/07 09:39:32;;;;;;;;;;;;;;;20.43;68.31;101638.50;4999625;28;1694;-43
2021/11/07 09:44:49;;;;;;;;;;;;;;;20.41;68.49;101645.81;4998096;28;1566;-43
2021/11/07 09:47:15;;;;;;;;;;;;;;;20.72;68.47;101638.00;5003018;28;1360;-43
2021/11/07 09:49:49;;;;;;;;;;;;;;;20.77;68.22;101628.59;4997839;28;1902;-43
2021/11/07 09:52:19;;;;;;;;;;;;;;;20.56;68.19;101622.25;5015069;28;1569;-43
2021/11/07 09:54:50;;;;;;;;;;;;;;;20.50;68.46;101612.00;5007230;28;1697;-43
2021/11/07 09:57:21;;;;;;;;;;;;;;;20.53;68.29;101593.81;5002442;28;1773;-43
2021/11/07 09:59:53;;;;;;;;;;;;;;;20.69;67.31;101596.13;5007396;28;2214;-43
2021/11/07 10:02:21;;;;;;;;;;;;;;;21.04;67.02;101579.72;5007846;28;1623;-43
2021/11/07 10:04:51;;;;;;;;;;;;;;;20.81;67.76;101564.66;5010506;28;1735;-43
2021/11/07 10:07:24;;;;;;;;;;;;;;;20.78;68.17;101578.38;5006920;28;1468;-43
2021/11/07 10:10:04;;;;;;;;;;;;;;;20.65;68.52;101579.38;4996748;28;1911;-42
2021/11/07 10:12:35;;;;;;;;;;;;;;;20.51;69.57;101578.75;5001886;28;1627;-44
2021/11/07 10:15:11;;;;;;;;;;;;;;;20.49;69.49;101573.50;5006062;28;1545;-43
2021/11/07 10:17:43;;;;;;;;;;;;;;;20.39;69.84;101557.31;5006994;28;1543;-43
2021/11/07 10:20:28;;;;;;;;;;;;;;;20.36;70.23;101551.34;5003264;28;1401;-42
2021/11/07 10:22:58;;;;;;;;;;;;;;;20.30;69.42;101535.72;5004083;28;1524;-43
2021/11/07 10:25:41;;;;;;;;;;;;;;;20.30;69.30;101558.06;5003864;28;1356;-42
2021/11/07 10:28:25;;;;;;;;;;;;;;;20.27;69.83;101558.28;5005564;28;1943;-42
2021/11/07 10:31:12;;;;;;;;;;;;;;;20.36;69.60;101543.28;5002383;28;1922;-42
2021/11/07 10:42:19;;;;;;;;;;;;;;;20.46;69.51;101517.34;5005461;28;1879;-42
2021/11/07 10:53:25;;;;;;;;;;;;;;;20.35;70.10;101503.94;5005539;28;1747;-42
2021/11/07 10:55:56;;;;;;;;;;;;;;;20.36;69.32;101505.66;5001960;28;1803;-42
2021/11/07 10:58:35;;;;;;;;;;;;;;;20.51;70.11;101500.84;5004739;28;1699;-42
2021/11/07 11:01:06;;;;;;;;;;;;;;;20.24;69.19;101503.00;5007854;28;1723;-42
2021/11/07 11:03:41;;;;;;;;;;;;;;;20.25;69.25;101487.72;4306201;28;10000751;-42
2021/11/07 11:06:10;;;;;;;;;;;;;;;20.15;69.79;101511.78;4998051;28;1560;-43
2021/11/07 11:08:39;;;;;;;;;;;;;;;20.11;70.58;101488.00;4992754;28;1582;-42
2021/11/07 11:11:13;;;;;;;;;;;;;;;20.06;70.74;101489.25;4998388;28;1949;-42
2021/11/07 11:13:48;;;;;;;;;;;;;;;20.03;70.67;101483.28;4996642;28;1674;-42
2021/11/07 11:16:35;;;;;;;;;;;;;;;20.04;70.00;101471.56;4994289;28;1469;-42
2021/11/07 11:19:25;;;;;;;;;;;;;;;20.01;71.39;101466.44;4999178;28;1885;-42
2021/11/07 11:24:54;;;;;;;;;;;;;;;19.99;70.81;101452.28;4987401;28;2757;-42
2021/11/07 11:30:09;;;;;;;;;;;;;;;20.15;70.30;101436.59;4999649;28;2541;-42
2021/11/07 11:32:42;;;;;;;;;;;;;;;20.24;69.87;101430.50;5007266;28;1579;-42
2021/11/07 11:37:39;;;;;;;;;;;;;;;20.30;70.07;101425.59;5100872;27;1490;-45
2021/11/07 11:40:11;;;;;;;;;;;;;;;20.30;69.51;101439.03;5100599;28;1422;-64
2021/11/07 11:42:43;;;;;;;;;;;;;;;20.30;69.81;101433.66;5104452;28;1501;-56
2021/11/07 11:45:10;;;;;;;;;;;;;;;20.18;69.54;101441.75;5103791;28;1486;-56
2021/11/07 11:47:54;;;;;;;;;;;;;;;20.12;70.93;101439.56;5105106;28;1389;-56
2021/11/07 11:50:28;;;;;;;;;;;;;;;20.01;70.53;101418.09;5104344;28;1565;-56
2021/11/07 11:53:12;;;;;;;;;;;;;;;19.97;71.19;101435.44;5094462;28;1436;-64
2021/11/07 11:55:44;;;;;;;;;;;;;;;19.95;71.00;101432.03;5101968;28;1974;-56
2021/11/07 11:58:22;;;;;;;;;;;;;;;19.92;71.19;101414.34;5105382;28;1563;-57
2021/11/07 12:00:54;;;;;;;;;;;;;;;20.08;71.02;101413.09;5103286;28;1533;-57
2021/11/07 12:03:37;;;;;;;;;;;;;;;19.94;71.39;101400.81;5100517;28;1429;-57
2021/11/07 12:06:20;;;;;;;;;;;;;;;19.89;70.71;101394.97;5095738;28;1670;-57
2021/11/07 12:08:58;;;;;;;;;;;;;;;20.06;71.17;101406.00;5104586;28;1621;-56
2021/11/07 12:11:31;;;;;;;;;;;;;;;19.96;71.34;101405.06;5091522;28;1635;-63
2021/11/07 12:14:06;;;;;;;;;;;;;;;19.90;71.82;101404.75;5096542;28;1453;-57
2021/11/07 12:16:47;;;;;;;;;;;;;;;19.84;70.82;101404.25;5094764;28;2022;-56
2021/11/07 12:19:15;;;;;;;;;;;;;;;19.84;70.96;101387.31;5100404;28;1475;-64
2021/11/07 12:21:55;;;;;;;;;;;;;;;19.92;70.19;101384.00;5097599;28;1292;-61
2021/11/07 12:24:28;;;;;;;;;;;;;;;19.99;71.03;101387.84;5099235;28;1536;-65
2021/11/07 12:27:10;;;;;;;;;;;;;;;19.97;70.30;101379.06;5092394;28;1493;-63
2021/11/07 12:29:37;;;;;;;;;;;;;;;19.85;70.54;101380.94;5099861;28;1432;-64
2021/11/07 12:32:06;;;;;;;;;;;;;;;19.81;71.48;101374.13;5100032;28;1370;-56
2021/11/07 12:34:49;;;;;;;;;;;;;;;20.00;70.18;101354.69;5095265;28;1514;-54
2021/11/07 12:43:01;;;;;;;;;;;;;;;19.80;71.50;101346.44;5098374;28;1398;-58
2021/11/07 12:45:31;;;;;;;;;;;;;;;19.81;70.65;101348.13;5100430;28;1378;-65
2021/11/07 12:48:02;;;;;;;;;;;;;;;19.78;71.61;101347.56;5091356;28;1456;-56
2021/11/07 12:50:29;;;;;;;;;;;;;;;19.81;70.49;101337.38;5091721;28;1281;-57
2021/11/07 12:52:58;;;;;;;;;;;;;;;19.84;71.24;101339.84;5087164;28;1525;-56
2021/11/07 12:55:27;;;;;;;;;;;;;;;19.82;71.62;101323.00;5082803;28;1561;-56
2021/11/07 12:57:54;;;;;;;;;;;;;;;19.77;71.10;101325.19;5085965;28;1552;-56
2021/11/07 13:00:21;;;;;;;;;;;;;;;19.80;70.31;101324.13;5088507;28;1253;-64
2021/11/07 13:02:48;;;;;;;;;;;;;;;19.76;71.86;101312.78;5084675;28;1685;-56
2021/11/07 13:05:18;;;;;;;;;;;;;;;19.73;70.76;101329.13;5077884;28;1428;-65
2021/11/07 13:07:48;;;;;;;;;;;;;;;19.80;70.27;101330.34;5082025;28;1590;-56
2021/11/07 13:10:22;;;;;;;;;;;;;;;19.72;70.45;101323.91;5087161;28;1483;-64
2021/11/07 13:12:54;;;;;;;;;;;;;;;19.70;70.55;101320.47;5087286;28;1457;-56
2021/11/07 13:15:37;;;;;;;;;;;;;;;19.68;72.08;101340.22;5087138;28;1759;-56
2021/11/07 13:23:49;;;;;;;;;;;;;;;19.64;71.11;101324.50;5076537;28;2232;-56
2021/11/07 13:26:28;;;;;;;;;;;;;;;19.68;71.79;101315.22;5085407;28;1446;-64
2021/11/07 13:29:09;;;;;;;;;;;;;;;19.74;70.22;101330.00;5083020;28;1413;-56
2021/11/07 13:31:44;;;;;;;;;;;;;;;19.73;70.63;101334.50;5081770;28;1369;-64
2021/11/07 13:34:13;;;;;;;;;;;;;;;19.68;71.54;101331.31;5080025;28;1392;-56
2021/11/07 13:36:41;;;;;;;;;;;;;;;19.65;72.11;101331.56;5083780;28;1984;-57
2021/11/07 13:39:08;;;;;;;;;;;;;;;19.64;71.55;101330.72;5076677;28;1489;-64
2021/11/07 13:41:35;;;;;;;;;;;;;;;19.62;71.58;101326.47;5085112;28;1559;-56
2021/11/07 13:44:06;;;;;;;;;;;;;;;19.62;70.91;101334.50;5077981;28;1462;-56
2021/11/07 13:46:34;;;;;;;;;;;;;;;19.63;71.90;101336.19;5078094;28;1547;-64
2021/11/07 13:49:02;;;;;;;;;;;;;;;19.59;71.08;101321.34;5086015;28;1406;-56
2021/11/07 13:51:29;;;;;;;;;;;;;;;19.58;71.81;101320.50;5084405;28;1736;-64
2021/11/07 13:53:58;;;;;;;;;;;;;;;19.58;71.59;101323.16;5081196;28;1424;-56
2021/11/07 13:56:24;;;;;;;;;;;;;;;19.58;70.94;101322.31;5081046;28;1967;-56
2021/11/07 13:58:51;;;;;;;;;;;;;;;19.55;72.05;101310.00;5086389;28;1452;-64
2021/11/07 14:01:19;;;;;;;;;;;;;;;19.61;71.43;101311.31;5084633;28;1428;-56
2021/11/07 14:03:52;;;;;;;;;;;;;;;19.62;70.68;101310.38;5080580;28;1491;-64
2021/11/07 14:06:27;;;;;;;;;;;;;;;19.78;70.81;101310.81;5077803;28;1473;-60
2021/11/07 14:08:56;;;;;;;;;;;;;;;19.76;70.90;101306.56;5088275;28;1497;-56
2021/11/07 14:11:23;;;;;;;;;;;;;;;19.63;70.94;101312.06;5084943;28;1469;-57
2021/11/07 14:13:51;;;;;;;;;;;;;;;19.60;71.36;101323.06;5083875;28;1414;-64
2021/11/07 14:16:29;;;;;;;;;;;;;;;19.58;71.56;101315.13;5083359;28;1902;-56
2021/11/07 14:18:55;;;;;;;;;;;;;;;19.56;71.85;101300.97;5081836;28;1575;-56